Time;durP1;ratioP1;P1;durP2;ratioP2;P2;SDS_P1;SDS_P2;PMS_P1;PMS_P2;Temp;Humidity;BMP_temperature;BMP_pressure;BME280_temperature;BME280_humidity;BME280_pressure;Samples;Min_cycle;Max_cycle;Signal;HPM_P1;HPM_P2
2021/07/24 00:01:28;;;;;;;14.32;7.45;;;;;;;18.12;74.38;99649.88;4994270;28;20423;-70
2021/07/24 00:03:55;;;;;;;14.73;7.60;;;;;;;18.10;73.72;99658.16;4996149;28;20057;-69
2021/07/24 00:06:42;;;;;;;10.88;7.47;;;;;;;18.10;74.79;99665.38;5004392;28;20120;-70
2021/07/24 00:09:09;;;;;;;16.60;8.35;;;;;;;18.05;75.52;99649.66;4977337;28;20124;-70
2021/07/24 00:11:35;;;;;;;12.43;8.13;;;;;;;18.11;74.23;99675.19;4975829;28;20047;-70
2021/07/24 00:14:02;;;;;;;13.60;7.78;;;;;;;18.08;74.92;99675.50;4975742;28;20122;-70
2021/07/24 00:16:29;;;;;;;14.93;7.85;;;;;;;18.06;75.83;99686.44;4974849;28;20050;-70
2021/07/24 00:18:55;;;;;;;17.40;7.60;;;;;;;18.04;75.03;99681.16;4970439;28;20051;-70
2021/07/24 00:21:22;;;;;;;14.73;7.15;;;;;;;18.04;74.74;99686.56;4976059;28;20089;-70
2021/07/24 00:23:49;;;;;;;12.18;6.72;;;;;;;18.05;75.34;99677.50;4995561;28;20058;-70
2021/07/24 00:26:15;;;;;;;11.65;7.43;;;;;;;17.91;75.48;99670.75;5027460;28;20109;-69
2021/07/24 00:28:42;;;;;;;18.55;7.70;;;;;;;17.94;75.35;99668.75;4994841;28;20120;-70
2021/07/24 00:31:09;;;;;;;12.38;7.15;;;;;;;17.87;75.76;99665.81;4995535;28;20420;-70
2021/07/24 00:33:36;;;;;;;12.73;7.95;;;;;;;17.83;76.26;99678.78;4995808;28;20073;-69
2021/07/24 00:36:02;;;;;;;15.75;7.65;;;;;;;17.75;76.57;99671.44;4995842;28;20136;-69
2021/07/24 00:38:29;;;;;;;13.70;7.90;;;;;;;17.71;76.43;99663.81;4994668;28;20068;-70
2021/07/24 00:41:04;;;;;;;15.02;8.07;;;;;;;17.68;77.07;99664.09;4994636;28;20428;-70
2021/07/24 00:43:34;;;;;;;15.52;7.93;;;;;;;17.59;77.61;99658.63;4995492;28;20057;-69
2021/07/24 00:46:02;;;;;;;;;;;;;;;17.55;77.73;99659.94;4996330;28;20085;-70
2021/07/24 00:48:30;;;;;;;13.48;7.78;;;;;;;17.49;77.70;99655.97;4995786;28;20235;-69
2021/07/24 00:50:57;;;;;;;11.73;7.85;;;;;;;17.45;78.31;99654.59;4995410;28;20475;-69
2021/07/24 00:53:34;;;;;;;21.13;7.82;;;;;;;17.32;79.77;99654.09;5026682;28;20058;-69
2021/07/24 00:56:04;;;;;;;16.10;7.68;;;;;;;17.20;80.56;99640.81;4995507;28;20436;-69
2021/07/24 00:58:32;;;;;;;11.93;8.07;;;;;;;17.26;79.55;99649.31;4995496;28;20058;-69
2021/07/24 01:01:00;;;;;;;10.18;7.53;;;;;;;17.21;80.10;99639.81;4996875;28;20120;-69
2021/07/24 01:03:28;;;;;;;12.20;7.38;;;;;;;17.13;80.35;99642.41;4997120;28;20511;-68
2021/07/24 01:05:56;;;;;;;17.73;8.23;;;;;;;17.09;81.54;99638.31;4996522;28;20050;-69
2021/07/24 01:08:24;;;;;;;14.52;7.65;;;;;;;16.99;81.24;99632.09;4995155;28;20421;-70
2021/07/24 01:10:52;;;;;;;11.80;7.43;;;;;;;16.97;81.74;99629.53;4995983;28;20058;-70
2021/07/24 01:13:20;;;;;;;11.73;7.85;;;;;;;16.88;82.08;99631.25;4995475;28;20050;-70
2021/07/24 01:15:48;;;;;;;11.35;7.65;;;;;;;16.82;82.06;99638.09;4978810;28;20062;-70
2021/07/24 01:18:16;;;;;;;16.48;7.78;;;;;;;16.89;83.42;99637.53;4979168;28;20431;-69
2021/07/24 01:20:44;;;;;;;12.05;8.18;;;;;;;16.82;82.81;99638.09;4989582;28;20342;-70
2021/07/24 01:23:13;;;;;;;18.25;8.45;;;;;;;16.83;82.57;99637.09;4983997;28;20054;-69
2021/07/24 01:25:43;;;;;;;14.32;8.10;;;;;;;16.79;82.80;99632.16;4987834;28;20132;-70
2021/07/24 01:28:10;;;;;;;14.30;8.68;;;;;;;16.73;82.99;99624.66;4998909;28;20101;-70
2021/07/24 01:30:37;;;;;;;11.25;8.23;;;;;;;16.75;83.24;99630.75;4997672;28;20341;-68
2021/07/24 01:33:04;;;;;;;13.98;7.93;;;;;;;16.71;83.10;99624.81;4998578;28;20097;-69
2021/07/24 01:35:31;;;;;;;13.50;8.48;;;;;;;16.72;83.27;99625.66;4998508;28;20090;-69
2021/07/24 01:37:57;;;;;;;15.85;8.43;;;;;;;16.67;83.30;99613.47;4998623;28;20112;-69
2021/07/24 01:40:24;;;;;;;14.70;9.13;;;;;;;16.63;83.46;99609.38;4998477;28;20050;-69
2021/07/24 01:42:51;;;;;;;14.40;8.38;;;;;;;16.56;83.96;99611.81;5030249;28;20088;-70
2021/07/24 01:45:17;;;;;;;15.52;8.52;;;;;;;16.58;84.40;99617.06;4998449;28;20097;-69
2021/07/24 01:47:44;;;;;;;12.50;9.00;;;;;;;16.53;83.61;99619.31;4998541;28;20073;-70
2021/07/24 01:52:57;;;;;;;13.45;8.13;;;;;;;16.54;84.11;99612.94;4998522;28;20054;-70
2021/07/24 01:55:44;;;;;;;18.58;8.32;;;;;;;16.58;83.91;99611.66;4998648;28;20104;-70
2021/07/24 01:58:14;;;;;;;13.95;8.27;;;;;;;16.56;85.08;99594.78;4997904;28;20058;-70
2021/07/24 02:00:43;;;;;;;11.15;8.38;;;;;;;16.48;84.31;99586.59;4998316;28;20050;-70
2021/07/24 02:03:14;;;;;;;14.02;8.45;;;;;;;16.50;83.95;99595.38;4998172;28;20082;-69
2021/07/24 02:05:49;;;;;;;17.15;9.60;;;;;;;16.50;84.31;99584.63;4998333;28;20614;-70
2021/07/24 02:08:24;;;;;;;13.10;8.52;;;;;;;16.54;84.11;99580.63;4998036;28;20054;-69
2021/07/24 02:10:51;;;;;;;15.82;9.10;;;;;;;16.52;84.05;99569.97;4998156;28;20115;-69
2021/07/24 02:13:20;;;;;;;17.70;9.15;;;;;;;16.54;83.40;99569.84;4997981;28;20046;-69
2021/07/24 02:15:47;;;;;;;15.02;9.10;;;;;;;16.53;83.15;99546.59;4998056;28;20116;-69
2021/07/24 02:18:18;;;;;;;12.23;8.63;;;;;;;16.61;83.24;99559.34;4997652;28;20100;-70
2021/07/24 02:20:46;;;;;;;15.93;9.20;;;;;;;16.59;82.95;99550.53;4991670;28;20089;-69
2021/07/24 02:23:14;;;;;;;15.27;10.05;;;;;;;16.66;83.08;99552.50;4978312;28;20050;-69
2021/07/24 02:25:40;;;;;;;12.30;8.98;;;;;;;16.66;82.66;99536.34;4986878;28;20085;-69
2021/07/24 02:28:07;;;;;;;16.05;9.43;;;;;;;16.68;82.21;99514.63;4997874;28;20108;-69
2021/07/24 02:30:34;;;;;;;12.93;9.00;;;;;;;16.72;82.09;99512.50;4996450;28;20065;-70
2021/07/24 02:33:01;;;;;;;16.85;10.25;;;;;;;16.76;81.22;99495.00;4997085;28;20325;-70
2021/07/24 02:35:28;;;;;;;15.73;9.80;;;;;;;16.75;82.02;99474.44;4996820;28;20050;-69
2021/07/24 02:37:54;;;;;;;16.70;9.73;;;;;;;16.72;80.88;99464.00;4997212;28;20050;-69
2021/07/24 02:40:22;;;;;;;17.73;9.85;;;;;;;16.74;81.27;99459.28;4997312;28;20436;-70
2021/07/24 02:42:49;;;;;;;19.23;9.25;;;;;;;16.76;79.88;99470.75;4996222;28;20098;-70
2021/07/24 02:45:15;;;;;;;15.52;8.70;;;;;;;16.83;79.50;99485.31;4997085;28;20054;-71
2021/07/24 02:47:42;;;;;;;17.25;9.07;;;;;;;16.81;79.68;99480.09;4997254;28;20120;-70
2021/07/24 02:50:10;;;;;;;16.75;8.85;;;;;;;16.88;79.25;99488.41;4996152;28;20104;-70
2021/07/24 02:52:36;;;;;;;22.45;8.93;;;;;;;16.84;79.25;99489.75;4997310;28;20046;-70
2021/07/24 02:55:03;;;;;;;21.75;8.32;;;;;;;16.85;79.67;99475.25;4995876;28;20050;-70
2021/07/24 02:57:30;;;;;;;12.82;8.90;;;;;;;16.81;80.32;99461.25;4997083;28;20050;-70
2021/07/24 02:59:56;;;;;;;13.63;9.40;;;;;;;16.79;80.62;99459.69;4996740;28;20066;-70
2021/07/24 03:02:23;;;;;;;15.25;9.32;;;;;;;16.80;80.57;99469.47;4995818;28;20440;-70
2021/07/24 03:04:50;;;;;;;18.60;9.32;;;;;;;16.86;80.63;99462.63;4997082;28;20125;-70
2021/07/24 03:07:17;;;;;;;14.73;9.95;;;;;;;16.84;80.91;99470.88;4996817;28;20081;-69
2021/07/24 03:09:44;;;;;;;15.85;10.13;;;;;;;16.83;81.42;99452.97;4996660;28;20061;-70
2021/07/24 03:12:11;;;;;;;12.20;10.07;;;;;;;16.81;81.32;99460.38;4996648;28;20428;-70
2021/07/24 03:14:37;;;;;;;18.30;10.00;;;;;;;16.84;81.56;99468.19;4995712;28;20432;-70
2021/07/24 03:17:04;;;;;;;16.17;10.00;;;;;;;16.88;81.45;99471.41;4996745;28;20104;-70
2021/07/24 03:19:30;;;;;;;18.60;9.30;;;;;;;16.91;81.48;99490.81;4996529;28;20101;-70
2021/07/24 03:21:57;;;;;;;21.40;9.90;;;;;;;16.95;81.37;99497.59;4980939;28;20055;-70
2021/07/24 03:24:24;;;;;;;17.48;11.18;;;;;;;16.99;81.04;99500.00;4977239;28;20117;-70
2021/07/24 03:26:50;;;;;;;19.23;10.95;;;;;;;16.97;81.78;99500.13;4995356;28;20132;-70
2021/07/24 03:29:17;;;;;;;15.85;10.93;;;;;;;17.00;81.25;99523.25;4996611;28;20097;-70
2021/07/24 03:31:43;;;;;;;22.58;11.55;;;;;;;17.01;81.86;99538.44;4996894;28;20082;-70
2021/07/24 03:34:10;;;;;;;16.85;10.82;;;;;;;17.06;81.93;99536.16;4996299;28;20432;-70
2021/07/24 03:36:36;;;;;;;20.58;11.07;;;;;;;17.05;81.46;99521.81;4996170;28;20054;-71
2021/07/24 03:39:04;;;;;;;18.80;11.13;;;;;;;17.12;82.14;99532.00;4996230;28;20169;-70
2021/07/24 03:41:35;;;;;;;20.13;11.15;;;;;;;17.11;82.24;99523.09;4996292;28;20054;-70
2021/07/24 03:44:02;;;;;;;;;;;;;;;17.19;81.17;99520.47;4996751;28;20054;-70
2021/07/24 03:46:29;;;;;;;22.20;11.50;;;;;;;17.20;81.33;99511.38;4995931;28;19925;-70
2021/07/24 03:48:56;;;;;;;20.55;10.90;;;;;;;17.19;81.26;99503.44;4996310;28;20052;-70
2021/07/24 03:51:22;;;;;;;22.63;12.55;;;;;;;17.12;81.83;99505.03;4995158;28;20089;-70
2021/07/24 03:53:49;;;;;;;21.10;11.68;;;;;;;17.09;81.92;99498.09;4996093;28;20463;-71
2021/07/24 03:56:18;;;;;;;19.30;11.77;;;;;;;17.15;81.96;99510.97;4995944;28;20054;-70
2021/07/24 03:58:47;;;;;;;21.17;11.27;;;;;;;17.19;82.53;99508.81;4994989;28;20086;-70
2021/07/24 04:01:14;;;;;;;26.48;13.23;;;;;;;17.19;81.68;99511.53;4996141;28;20056;-70
2021/07/24 04:03:41;;;;;;;25.33;11.82;;;;;;;17.17;82.15;99506.28;4995938;28;20344;-71
2021/07/24 04:06:13;;;;;;;18.70;11.90;;;;;;;17.27;81.87;99518.84;4995861;28;20380;-71
2021/07/24 04:08:40;;;;;;;19.55;11.32;;;;;;;17.31;81.62;99514.81;4996029;28;20104;-70
2021/07/24 04:11:08;;;;;;;13.88;11.13;;;;;;;17.30;82.20;99513.13;5011079;28;20085;-70
2021/07/24 04:13:36;;;;;;;20.83;11.95;;;;;;;17.24;82.40;99499.28;4996082;28;20124;-71
2021/07/24 04:16:04;;;;;;;19.77;11.48;;;;;;;17.27;82.31;99499.97;4995968;28;20124;-70
2021/07/24 04:18:33;;;;;;;25.52;12.40;;;;;;;17.23;82.39;99504.84;4995954;28;20065;-70
2021/07/24 04:21:01;;;;;;;17.08;11.20;;;;;;;17.26;82.53;99512.59;4970753;28;20456;-71
2021/07/24 04:23:27;;;;;;;18.35;11.30;;;;;;;17.22;82.77;99503.13;5007834;28;20105;-70
2021/07/24 04:25:54;;;;;;;26.35;11.73;;;;;;;17.23;82.94;99510.22;4986683;28;20089;-70
2021/07/24 04:28:23;;;;;;;16.58;11.07;;;;;;;17.26;83.04;99514.47;4995546;28;20062;-70
2021/07/24 04:30:50;;;;;;;17.10;11.50;;;;;;;17.25;83.01;99513.59;4995826;28;20062;-69
2021/07/24 04:33:17;;;;;;;17.67;11.82;;;;;;;17.20;83.20;99500.59;4994890;28;20042;-69
2021/07/24 04:35:48;;;;;;;20.20;11.63;;;;;;;17.31;82.65;99502.22;4995679;28;20061;-68
2021/07/24 04:38:16;;;;;;;16.58;11.88;;;;;;;17.32;82.63;99497.66;4995710;28;20278;-69
2021/07/24 04:40:44;;;;;;;19.77;12.85;;;;;;;17.31;84.71;99496.81;4995572;28;20050;-70
2021/07/24 04:43:13;;;;;;;15.30;11.60;;;;;;;17.38;82.57;99491.66;4995768;28;20043;-70
2021/07/24 04:45:44;;;;;;;17.42;11.43;;;;;;;17.39;82.69;99493.34;4995596;28;20057;-69
2021/07/24 04:48:11;;;;;;;17.35;11.32;;;;;;;17.47;82.70;99492.56;4995803;28;20061;-70
2021/07/24 04:50:42;;;;;;;20.15;12.50;;;;;;;17.45;82.55;99492.75;4994476;28;20128;-70
2021/07/24 04:53:12;;;;;;;19.55;12.45;;;;;;;17.42;83.08;99484.94;4995854;28;20073;-70
2021/07/24 04:55:40;;;;;;;16.83;12.65;;;;;;;17.41;82.53;99479.69;4995490;28;20144;-69
2021/07/24 04:58:08;;;;;;;19.40;12.50;;;;;;;17.41;83.52;99477.84;4997834;28;20145;-69
2021/07/24 05:00:42;;;;;;;17.25;12.57;;;;;;;17.44;82.94;99474.84;4995222;28;20042;-69
2021/07/24 05:03:11;;;;;;;22.13;12.68;;;;;;;17.49;82.72;99477.09;4980037;28;20043;-70
2021/07/24 05:05:39;;;;;;;21.60;13.23;;;;;;;17.40;82.61;99451.88;4979883;28;20108;-69
2021/07/24 05:08:07;;;;;;;20.33;13.18;;;;;;;17.53;82.68;99477.63;4979568;28;20055;-69
2021/07/24 05:10:35;;;;;;;17.38;12.55;;;;;;;17.54;83.08;99473.91;4979863;28;20105;-70
2021/07/24 05:13:02;;;;;;;22.45;12.70;;;;;;;17.50;83.01;99458.03;4979365;28;20043;-70
2021/07/24 05:15:29;;;;;;;17.63;13.52;;;;;;;17.53;83.25;99472.22;4979801;28;20054;-69
2021/07/24 05:17:56;;;;;;;20.17;13.35;;;;;;;17.61;82.65;99469.59;4979534;28;20105;-69
2021/07/24 05:20:24;;;;;;;19.75;13.35;;;;;;;17.64;82.93;99462.03;4979503;28;20189;-69
2021/07/24 05:22:51;;;;;;;20.00;13.63;;;;;;;17.64;83.23;99458.47;4978559;28;20042;-69
2021/07/24 05:25:18;;;;;;;17.90;12.85;;;;;;;17.74;82.25;99464.63;4984659;28;20096;-70
2021/07/24 05:27:45;;;;;;;19.02;12.98;;;;;;;17.78;81.96;99470.56;4998904;28;20058;-69
2021/07/24 05:30:12;;;;;;;18.75;12.95;;;;;;;17.78;82.89;99470.56;4997736;28;20085;-70
2021/07/24 05:32:41;;;;;;;17.10;12.52;;;;;;;17.78;82.76;99466.00;4998809;28;20117;-69
2021/07/24 05:35:08;;;;;;;24.38;13.05;;;;;;;17.80;82.90;99454.22;4998909;28;20054;-70
2021/07/24 05:37:35;;;;;;;21.02;13.23;;;;;;;17.87;81.84;99453.41;4998742;28;20061;-69
2021/07/24 05:40:04;;;;;;;16.98;12.82;;;;;;;17.90;82.28;99449.53;4998648;28;20105;-69
2021/07/24 05:42:30;;;;;;;21.85;14.30;;;;;;;17.95;81.38;99443.66;4981436;28;20050;-70
2021/07/24 05:44:57;;;;;;;21.15;12.77;;;;;;;17.99;81.28;99435.09;4998402;28;20105;-70
2021/07/24 05:47:23;;;;;;;20.50;13.93;;;;;;;18.03;82.06;99424.81;4998385;28;20062;-70
2021/07/24 05:49:50;;;;;;;19.00;13.23;;;;;;;18.05;83.19;99417.44;4998324;28;20062;-69
2021/07/24 05:52:17;;;;;;;25.20;13.85;;;;;;;18.16;80.92;99419.00;4997294;28;20054;-69
2021/07/24 05:54:44;;;;;;;21.30;13.07;;;;;;;18.15;83.01;99414.63;4998155;28;20436;-70
2021/07/24 05:57:10;;;;;;;19.27;13.20;;;;;;;18.17;81.72;99396.38;4998101;28;20101;-70
2021/07/24 05:59:37;;;;;;;20.85;12.18;;;;;;;18.09;82.36;99374.75;4982676;28;20055;-69
2021/07/24 06:02:05;;;;;;;18.13;13.07;;;;;;;18.21;82.86;99386.97;4978511;28;20050;-70
2021/07/24 06:04:33;;;;;;;21.05;13.73;;;;;;;18.28;80.05;99373.63;4978603;28;20417;-74
2021/07/24 06:07:00;;;;;;;17.75;12.80;;;;;;;18.31;82.35;99381.44;4977815;28;20086;-70
2021/07/24 06:09:27;;;;;;;25.25;13.27;;;;;;;18.34;81.28;99388.38;4966681;28;20385;-70
2021/07/24 06:11:54;;;;;;;19.80;13.75;;;;;;;18.41;80.64;99368.63;4972295;28;20109;-72
2021/07/24 06:14:23;;;;;;;15.75;13.10;;;;;;;18.40;82.26;99366.06;4977552;28;20216;-75
2021/07/24 06:16:51;;;;;;;16.58;12.73;;;;;;;18.40;81.71;99360.66;4977374;28;20148;-71
2021/07/24 06:19:17;;;;;;;18.08;13.15;;;;;;;18.46;81.28;99357.31;4978076;28;20051;-71
2021/07/24 06:21:45;;;;;;;18.92;12.93;;;;;;;18.43;81.97;99354.94;4978132;28;20062;-73
2021/07/24 06:24:14;;;;;;;20.63;12.77;;;;;;;18.57;79.62;99359.72;4978030;28;20051;-73
2021/07/24 06:26:40;;;;;;;18.77;12.23;;;;;;;18.59;80.25;99346.88;4968048;28;20190;-71
2021/07/24 06:29:08;;;;;;;16.48;12.57;;;;;;;18.65;79.77;99336.41;4976751;28;20050;-71
2021/07/24 06:31:36;;;;;;;25.00;12.63;;;;;;;18.73;79.02;99339.13;4976568;28;20440;-71
2021/07/24 06:34:04;;;;;;;18.08;11.73;;;;;;;18.72;80.33;99337.44;4976933;28;20142;-71
2021/07/24 06:36:31;;;;;;;15.10;12.10;;;;;;;18.64;78.99;99321.22;4976379;28;20338;-75
2021/07/24 06:38:58;;;;;;;19.35;12.18;;;;;;;18.90;77.94;99339.97;4977447;28;20337;-71
2021/07/24 06:41:26;;;;;;;16.08;11.80;;;;;;;18.89;78.44;99353.69;4977218;28;20093;-71
2021/07/24 06:43:56;;;;;;;22.30;11.38;;;;;;;18.94;78.03;99368.38;4976639;28;20039;-71
2021/07/24 06:46:23;;;;;;;12.57;11.23;;;;;;;18.99;77.26;99373.28;4977613;28;20058;-71
2021/07/24 06:48:50;;;;;;;20.55;11.77;;;;;;;19.03;76.84;99369.28;4976263;28;20138;-70
2021/07/24 06:51:17;;;;;;;15.88;11.85;;;;;;;19.06;77.32;99359.97;4976746;28;20047;-71
2021/07/24 06:53:44;;;;;;;18.63;11.80;;;;;;;19.10;77.66;99354.06;4976281;28;20046;-71
2021/07/24 06:56:10;;;;;;;23.33;13.10;;;;;;;19.14;77.64;99355.38;4976691;28;20081;-74
2021/07/24 06:58:37;;;;;;;20.83;13.15;;;;;;;19.09;79.45;99346.97;4976458;28;20503;-73
2021/07/24 07:01:09;;;;;;;16.63;12.88;;;;;;;19.17;77.76;99339.84;4976477;28;20042;-74
2021/07/24 07:03:36;;;;;;;21.65;13.15;;;;;;;19.22;77.73;99337.47;4976703;28;20046;-74
2021/07/24 07:06:05;;;;;;;20.60;13.45;;;;;;;19.17;77.66;99331.75;4981538;28;20065;-74
2021/07/24 07:08:32;;;;;;;20.73;12.88;;;;;;;19.22;77.56;99338.31;5011537;28;20042;-75
2021/07/24 07:11:04;;;;;;;20.50;12.65;;;;;;;19.35;76.75;99336.97;4994325;28;20054;-76
2021/07/24 07:13:31;;;;;;;17.90;12.18;;;;;;;19.29;77.15;99322.28;4995183;28;20461;-75
2021/07/24 07:16:01;;;;;;;18.90;13.07;;;;;;;19.41;76.32;99328.16;4984933;28;20054;-75
2021/07/24 07:18:28;;;;;;;;;;;;;;;19.34;79.49;99321.75;4981958;28;20121;-72
2021/07/24 07:20:55;;;;;;;24.40;12.90;;;;;;;19.38;77.84;99314.97;4981477;28;19930;-72
2021/07/24 07:23:22;;;;;;;20.48;12.20;;;;;;;19.44;77.24;99314.28;4980013;28;20042;-70
2021/07/24 07:25:48;;;;;;;19.08;12.88;;;;;;;19.54;75.67;99320.34;4980532;28;20128;-69
2021/07/24 07:28:15;;;;;;;18.88;13.10;;;;;;;19.56;76.16;99317.47;4981293;28;20101;-69
2021/07/24 07:30:42;;;;;;;26.45;12.77;;;;;;;19.55;76.84;99310.34;4979839;28;20050;-74
2021/07/24 07:33:08;;;;;;;20.52;12.98;;;;;;;19.61;76.07;99306.94;4983351;28;20357;-73
2021/07/24 07:35:35;;;;;;;22.40;12.63;;;;;;;19.67;75.87;99308.13;4984878;28;20440;-73
2021/07/24 07:38:02;;;;;;;18.45;12.80;;;;;;;19.80;75.49;99308.44;4980015;28;20055;-75
2021/07/24 07:40:29;;;;;;;18.80;13.07;;;;;;;19.80;76.06;99292.19;4985102;28;20042;-72
2021/07/24 07:42:55;;;;;;;18.67;13.32;;;;;;;19.93;75.19;99293.47;4988539;28;20372;-74
2021/07/24 07:45:22;;;;;;;22.85;12.38;;;;;;;19.95;75.59;99284.19;4990715;28;20050;-74
2021/07/24 07:47:50;;;;;;;25.83;12.75;;;;;;;20.01;74.67;99276.38;5007833;28;20070;-74
2021/07/24 07:50:17;;;;;;;18.38;12.80;;;;;;;20.10;74.66;99283.41;4985651;28;20524;-72
2021/07/24 07:52:44;;;;;;;20.10;12.27;;;;;;;20.12;74.55;99285.97;4980740;28;20096;-74
2021/07/24 07:55:10;;;;;;;21.13;13.90;;;;;;;20.15;74.23;99294.56;4979869;28;20075;-71
2021/07/24 07:57:40;;;;;;;18.85;12.45;;;;;;;20.25;74.08;99298.94;4979097;28;20051;-68
2021/07/24 08:00:08;;;;;;;20.05;11.48;;;;;;;20.29;74.83;99317.38;4980388;28;20448;-71
2021/07/24 08:02:34;;;;;;;16.73;11.43;;;;;;;20.31;75.44;99320.75;4977949;28;20114;-67
2021/07/24 08:05:02;;;;;;;17.23;12.70;;;;;;;20.26;76.20;99312.28;4985624;28;20093;-70
2021/07/24 08:07:29;;;;;;;14.45;12.23;;;;;;;20.41;74.10;99325.06;4982570;28;20058;-76
2021/07/24 08:09:57;;;;;;;18.25;12.55;;;;;;;20.46;73.30;99334.38;4976992;28;20348;-69
2021/07/24 08:12:25;;;;;;;24.05;12.85;;;;;;;20.48;74.19;99337.75;4984455;28;20046;-72
2021/07/24 08:14:56;;;;;;;19.48;12.52;;;;;;;20.54;73.73;99341.59;4995486;28;20129;-77
2021/07/24 08:17:22;;;;;;;20.25;13.02;;;;;;;20.53;73.96;99339.09;4983181;28;20066;-78
2021/07/24 08:19:50;;;;;;;22.27;12.23;;;;;;;20.58;76.18;99353.78;4985200;28;20146;-73
2021/07/24 08:22:16;;;;;;;22.33;12.98;;;;;;;20.64;74.24;99363.06;4993201;28;20105;-76
2021/07/24 08:24:43;;;;;;;18.83;13.32;;;;;;;20.65;75.94;99356.63;4991944;28;20046;-76
2021/07/24 08:27:09;;;;;;;18.08;12.75;;;;;;;20.61;76.46;99358.84;4995394;28;20116;-77
2021/07/24 08:29:36;;;;;;;21.17;12.95;;;;;;;20.68;74.58;99358.97;4994401;28;20050;-81
2021/07/24 08:32:03;;;;;;;21.60;13.13;;;;;;;20.67;76.61;99378.97;4996322;28;20050;-75
2021/07/24 08:34:30;;;;;;;17.38;12.43;;;;;;;20.65;75.61;99386.47;4999226;28;20049;-76
2021/07/24 08:36:56;;;;;;;20.95;13.20;;;;;;;20.65;76.27;99396.44;4983751;28;20397;-75
2021/07/24 08:39:23;;;;;;;17.58;12.43;;;;;;;20.59;76.29;99403.44;4992406;28;20403;-74
2021/07/24 08:41:50;;;;;;;19.15;13.05;;;;;;;20.59;76.74;99398.84;4993240;28;20055;-76
2021/07/24 08:44:16;;;;;;;18.20;12.43;;;;;;;20.58;76.84;99404.44;4992118;28;20050;-76
2021/07/24 08:46:43;;;;;;;21.70;12.45;;;;;;;20.63;78.34;99418.31;4996898;28;20573;-77
2021/07/24 08:49:10;;;;;;;22.15;12.52;;;;;;;20.56;77.06;99414.63;4998820;28;20074;-84
2021/07/24 08:51:38;;;;;;;18.42;12.90;;;;;;;20.50;80.18;99416.19;4997295;28;20046;-71
2021/07/24 08:54:05;;;;;;;16.52;11.93;;;;;;;20.49;80.80;99422.63;4993794;28;20054;-74
2021/07/24 08:56:35;;;;;;;19.60;12.48;;;;;;;20.45;80.35;99424.84;4996260;28;20425;-71
2021/07/24 08:59:03;;;;;;;17.20;12.38;;;;;;;20.44;80.67;99417.72;4996997;28;20066;-72
2021/07/24 09:01:32;;;;;;;16.45;12.55;;;;;;;20.37;81.30;99424.84;4990841;28;20113;-74
2021/07/24 09:04:04;;;;;;;16.53;13.10;;;;;;;20.27;81.14;99421.53;4983253;28;20097;-73
2021/07/24 09:06:33;;;;;;;22.20;12.15;;;;;;;20.26;80.61;99414.44;4990573;28;20109;-78
2021/07/24 09:09:04;;;;;;;20.92;13.43;;;;;;;20.22;81.89;99408.50;5001810;28;20161;-79
2021/07/24 09:11:30;;;;;;;16.33;11.85;;;;;;;20.27;80.35;99402.56;5000530;28;20047;-79
2021/07/24 09:13:57;;;;;;;16.27;12.27;;;;;;;20.35;78.08;99387.13;5017110;28;20042;-81
2021/07/24 09:16:26;;;;;;;15.70;11.52;;;;;;;20.32;78.46;99392.06;4981435;28;20086;-77
2021/07/24 09:18:57;;;;;;;21.10;13.10;;;;;;;20.36;79.78;99393.38;5024107;28;20095;-79
2021/07/24 09:21:25;;;;;;;19.45;12.25;;;;;;;20.32;78.47;99401.00;4987467;28;20387;-71
2021/07/24 09:23:51;;;;;;;20.77;13.30;;;;;;;20.37;79.46;99395.06;4992034;28;20428;-72
2021/07/24 09:26:33;;;;;;;19.38;12.32;;;;;;;20.40;77.90;99392.00;4995377;28;20498;-70
2021/07/24 09:29:14;;;;;;;19.08;13.35;;;;;;;20.47;78.84;99392.13;4996568;28;20058;-72
2021/07/24 09:31:42;;;;;;;15.95;12.43;;;;;;;20.47;76.74;99402.97;4992342;28;20050;-69
2021/07/24 09:34:11;;;;;;;20.30;12.02;;;;;;;20.46;76.56;99396.72;4993738;28;20050;-71
2021/07/24 09:36:38;;;;;;;17.67;12.25;;;;;;;20.29;77.23;99393.25;4990088;28;20396;-71
2021/07/24 09:39:18;;;;;;;17.13;12.45;;;;;;;20.39;78.65;99408.44;4993503;28;20065;-70
2021/07/24 09:41:46;;;;;;;16.90;12.40;;;;;;;20.35;77.80;99407.94;4984240;28;20506;-74
2021/07/24 09:44:30;;;;;;;18.58;12.75;;;;;;;20.34;76.86;99412.53;4989064;28;20108;-79
2021/07/24 09:46:58;;;;;;;20.85;12.05;;;;;;;20.13;75.43;99386.03;4985990;28;20503;-81
2021/07/24 09:49:38;;;;;;;18.15;11.32;;;;;;;20.37;74.95;99416.72;4998874;28;20093;-73
2021/07/24 09:52:12;;;;;;;20.48;13.00;;;;;;;20.24;77.02;99421.88;4990692;28;20043;-73
2021/07/24 09:54:39;;;;;;;18.85;11.90;;;;;;;20.19;77.38;99417.84;4980729;28;20094;-72
2021/07/24 09:57:06;;;;;;;20.42;12.05;;;;;;;20.19;76.45;99416.97;4983606;28;20054;-72
2021/07/24 09:59:34;;;;;;;16.45;12.20;;;;;;;20.20;75.26;99418.66;4982059;28;20383;-72
2021/07/24 10:02:08;;;;;;;19.35;12.85;;;;;;;20.19;77.41;99420.53;4983153;28;20137;-75
2021/07/24 10:04:40;;;;;;;20.25;12.98;;;;;;;20.17;78.25;99421.75;4984836;28;20047;-72
2021/07/24 10:07:29;;;;;;;17.63;12.68;;;;;;;20.14;78.31;99422.94;4987959;28;20455;-74
2021/07/24 10:09:58;;;;;;;18.50;12.00;;;;;;;20.04;76.54;99419.59;4985541;28;20058;-75
2021/07/24 10:12:24;;;;;;;20.23;12.07;;;;;;;20.01;77.73;99434.31;4986392;28;20063;-75
2021/07/24 10:14:52;;;;;;;18.85;12.40;;;;;;;20.08;76.65;99434.47;4989336;28;20046;-71
2021/07/24 10:17:19;;;;;;;15.85;11.80;;;;;;;20.02;77.66;99435.16;4989005;28;20341;-71
2021/07/24 10:19:46;;;;;;;15.45;12.18;;;;;;;19.90;79.65;99434.63;4979843;28;20046;-70
2021/07/24 10:22:13;;;;;;;19.10;12.45;;;;;;;19.73;82.00;99431.13;4983176;28;20050;-77
2021/07/24 10:24:40;;;;;;;17.27;12.75;;;;;;;19.57;85.46;99435.53;4978149;28;20051;-70
2021/07/24 10:27:12;;;;;;;17.02;11.88;;;;;;;19.38;84.27;99434.88;4988290;28;20334;-71
2021/07/24 10:29:52;;;;;;;14.30;11.65;;;;;;;19.17;83.40;99437.22;4990021;28;20055;-71
2021/07/24 10:32:25;;;;;;;15.80;12.27;;;;;;;19.09;86.52;99436.22;4994415;28;20058;-71
2021/07/24 10:34:53;;;;;;;14.93;12.07;;;;;;;18.98;88.09;99439.19;4989065;28;20055;-68
2021/07/24 10:37:35;;;;;;;15.90;12.35;;;;;;;18.96;91.66;99446.63;4982053;28;20055;-71
2021/07/24 10:42:53;;;;;;;15.55;12.32;;;;;;;19.00;91.90;99454.25;4985522;28;20499;-70
2021/07/24 10:45:32;;;;;;;15.90;12.88;;;;;;;18.98;92.41;99455.41;4997468;28;20439;-76
2021/07/24 10:48:14;;;;;;;17.75;12.73;;;;;;;18.89;92.18;99468.06;4990152;28;20054;-72
2021/07/24 10:51:00;;;;;;;17.73;12.80;;;;;;;18.79;95.35;99461.97;4988535;28;20047;-75
2021/07/24 10:53:48;;;;;;;17.27;13.50;;;;;;;18.72;98.75;99476.16;4990367;28;20507;-75
2021/07/24 10:56:37;;;;;;;20.58;12.70;;;;;;;18.69;97.58;99468.34;4994357;28;20053;-69
2021/07/24 10:59:13;;;;;;;19.23;13.98;;;;;;;18.75;98.00;99477.69;4991496;28;20105;-69
2021/07/24 11:01:56;;;;;;;15.80;13.18;;;;;;;18.75;96.88;99485.78;4979511;28;20078;-75
2021/07/24 11:04:42;;;;;;;17.25;14.13;;;;;;;18.75;98.71;99493.03;4986085;28;20081;-74
2021/07/24 11:07:21;;;;;;;19.80;14.05;;;;;;;18.77;98.37;99491.88;4987792;28;20047;-69
2021/07/24 11:09:52;;;;;;;20.17;14.43;;;;;;;18.74;96.90;99492.19;4995510;28;20104;-71
2021/07/24 11:12:36;;;;;;;24.08;15.20;;;;;;;18.66;97.87;99486.75;4987741;28;20101;-68
2021/07/24 11:15:05;;;;;;;23.58;15.07;;;;;;;18.57;98.77;99489.44;4994027;28;20046;-69
2021/07/24 11:17:32;;;;;;;18.35;15.07;;;;;;;18.56;100.00;99487.75;4992644;28;20184;-68
2021/07/24 11:19:59;;;;;;;20.00;15.57;;;;;;;18.59;100.00;99486.56;4996366;28;20062;-69
2021/07/24 11:22:27;;;;;;;24.33;16.23;;;;;;;18.59;100.00;99481.16;4987207;28;20050;-68
2021/07/24 11:24:57;;;;;;;21.33;16.33;;;;;;;18.56;100.00;99485.03;4996125;28;20085;-68
2021/07/24 11:27:26;;;;;;;23.95;16.33;;;;;;;18.53;100.00;99474.53;4981439;28;20054;-68
2021/07/24 11:29:54;;;;;;;24.75;17.90;;;;;;;18.50;100.00;99482.13;4980487;28;20477;-71
2021/07/24 11:32:28;;;;;;;22.58;16.73;;;;;;;18.48;100.00;99479.59;4988608;28;20106;-75